GB-0515 weather

Weston-super-Mare Heliport
England, United Kingdom

Public forecast

Using degrees Celsius for public forecast. Weather courtesy of forecast.io.

METAR (pilot weather report)

Closest report is Bristol Airport, 8.4 nm (15.6 km) ENE. Retrieved 2019/09/23 11:20 UTC (0 seconds ago):

EGGD 231120Z AUTO 17010KT 150V210 9999 NCD 16/11 Q1009

TAF (pilot weather forecast)

Closest forecast is Bristol Airport, 8.4 nm (15.6 km) ENE. Retrieved 2019/09/23 06:00 UTC (5 hours ago):

TAF EGGD 230502Z 2306/2406 19009KT 9999 FEW010 SCT025 BECMG 2312/2315 8000 -RA BKN010 TEMPO 2313/2318 17018G28KT 3000 RADZ BKN004 TEMPO 2318/2406 4000 BR BKN003 PROB40 TEMPO 2319/2402 0500 FG BKN001 TEMPO 2400/2406 +SHRA BKN008 PROB40 TEMPO 2400/2406 18020G30KT +SHGR BKN003 BKN015CB BECMG 2403/2406 9999 NSW SCT012